createdAt,value
2019-02-18T00:00:01.539Z,93.73
2019-02-18T00:01:02.294Z,93.70
2019-02-18T00:02:02.291Z,94.03
2019-02-18T00:03:02.943Z,93.87
2019-02-18T00:04:03.065Z,93.53
2019-02-18T00:05:04.010Z,93.96
2019-02-18T00:06:04.536Z,94.02
2019-02-18T00:07:13.764Z,93.73
2019-02-18T00:08:05.127Z,93.84
2019-02-18T00:09:06.134Z,93.56
2019-02-18T00:10:05.850Z,93.54
2019-02-18T00:11:07.484Z,93.91
2019-02-18T00:12:08.149Z,93.75
2019-02-18T00:13:08.718Z,93.46
2019-02-18T00:14:09.368Z,93.85
2019-02-18T00:15:10.020Z,94.63
2019-02-18T00:16:10.709Z,93.94
2019-02-18T00:17:11.340Z,93.51
2019-02-18T00:18:14.687Z,93.46
2019-02-18T00:19:11.202Z,93.55
2019-02-18T00:20:11.888Z,93.40
2019-02-18T00:21:13.175Z,93.28
2019-02-18T00:22:14.140Z,93.56
2019-02-18T00:23:14.974Z,93.46
2019-02-18T00:24:14.678Z,93.77
2019-02-18T00:25:16.354Z,93.34
2019-02-18T00:26:16.711Z,93.54
2019-02-18T00:27:17.375Z,93.64
2019-02-18T00:28:18.276Z,94.14
2019-02-18T00:29:18.929Z,93.98
2019-02-18T00:30:18.954Z,94.01
2019-02-18T00:31:19.576Z,95.16
2019-02-18T00:32:20.392Z,94.43
2019-02-18T00:33:20.412Z,94.27
2019-02-18T00:34:19.681Z,94.40
2019-02-18T00:35:21.636Z,94.17
2019-02-18T00:36:21.392Z,94.07
2019-02-18T00:37:24.524Z,94.29
2019-02-18T00:38:22.237Z,94.28
2019-02-18T00:39:24.099Z,94.24
2019-02-18T00:39:33.192Z,94.08
2019-02-18T00:40:33.812Z,94.08
2019-02-18T00:41:35.746Z,94.20
2019-02-18T00:42:36.395Z,94.27
2019-02-18T00:43:37.142Z,94.34
2019-02-18T00:44:37.846Z,94.16
2019-02-18T00:45:38.016Z,94.10
2019-02-18T00:46:38.903Z,94.44
2019-02-18T00:47:39.526Z,94.21
2019-02-18T00:48:40.259Z,94.16
2019-02-18T00:49:40.895Z,94.35
2019-02-18T00:50:41.279Z,94.54
2019-02-18T00:51:42.067Z,94.89
2019-02-18T00:52:42.739Z,94.95
2019-02-18T00:53:43.457Z,95.09
2019-02-18T00:54:44.074Z,94.68
2019-02-18T00:55:44.671Z,95.00
2019-02-18T00:56:44.691Z,94.99
2019-02-18T00:57:45.365Z,95.29
2019-02-18T00:58:46.027Z,95.04
2019-02-18T00:59:46.685Z,95.29
2019-02-18T01:00:47.535Z,95.28
2019-02-18T01:01:48.291Z,95.36
2019-02-18T01:02:48.915Z,95.70
2019-02-18T01:03:49.716Z,95.13
2019-02-18T01:04:50.364Z,95.84
2019-02-18T01:05:50.953Z,96.01
2019-02-18T01:06:51.641Z,96.13
2019-02-18T01:07:52.430Z,95.92
2019-02-18T01:08:52.971Z,96.02
2019-02-18T01:09:53.684Z,96.25
2019-02-18T01:10:54.202Z,97.05
2019-02-18T01:11:55.109Z,96.78
2019-02-18T01:12:55.979Z,96.35
2019-02-18T01:13:56.656Z,96.74
2019-02-18T01:14:57.279Z,96.20
2019-02-18T01:15:58.107Z,96.60
2019-02-18T01:16:58.635Z,97.06
2019-02-18T01:17:59.253Z,97.42
2019-02-18T01:18:59.992Z,97.15
2019-02-18T01:20:00.668Z,97.67
2019-02-18T01:21:01.324Z,97.58
2019-02-18T01:22:01.321Z,97.72
2019-02-18T01:23:01.956Z,97.32
2019-02-18T01:24:02.665Z,97.35
2019-02-18T01:25:03.339Z,96.96
2019-02-18T01:25:13.905Z,97.14
2019-02-18T01:26:15.575Z,97.16
2019-02-18T01:27:16.223Z,96.85
2019-02-18T01:28:16.873Z,96.57
2019-02-18T01:29:17.476Z,96.43
2019-02-18T01:30:18.376Z,97.05
2019-02-18T01:31:19.214Z,97.29
2019-02-18T01:32:19.802Z,97.01
2019-02-18T01:33:20.365Z,97.04
2019-02-18T01:34:21.146Z,96.78
2019-02-18T01:35:21.731Z,96.80
2019-02-18T01:36:23.159Z,97.35
2019-02-18T01:37:21.950Z,97.24
2019-02-18T01:38:23.480Z,96.66
2019-02-18T01:39:24.141Z,96.67
2019-02-18T01:40:25.090Z,97.04
2019-02-18T01:41:24.855Z,96.90
2019-02-18T01:42:26.331Z,96.92
2019-02-18T01:43:27.094Z,96.86
2019-02-18T01:44:27.648Z,97.71
2019-02-18T01:45:28.254Z,98.45
2019-02-18T01:46:28.855Z,98.57
2019-02-18T01:47:29.599Z,98.22
2019-02-18T01:48:30.158Z,98.03
2019-02-18T01:49:30.722Z,97.50
2019-02-18T01:50:31.563Z,97.04
2019-02-18T01:51:32.151Z,97.72
2019-02-18T01:52:32.767Z,97.06
2019-02-18T01:53:33.499Z,97.18
2019-02-18T01:54:34.163Z,97.48
2019-02-18T01:55:34.849Z,97.23
2019-02-18T01:56:35.523Z,97.14
2019-02-18T01:57:36.262Z,96.65
2019-02-18T01:58:36.705Z,96.79
2019-02-18T01:59:37.265Z,96.88
2019-02-18T02:00:37.849Z,96.64
2019-02-18T02:01:38.529Z,96.84
2019-02-18T02:02:39.180Z,96.73
2019-02-18T02:03:38.860Z,96.69
2019-02-18T02:04:40.434Z,96.68
2019-02-18T02:05:41.287Z,96.55
2019-02-18T02:06:41.919Z,96.67
2019-02-18T02:07:42.769Z,97.01
2019-02-18T02:08:43.426Z,96.60
2019-02-18T02:09:44.118Z,96.59
2019-02-18T02:10:44.807Z,97.12
2019-02-18T02:11:45.436Z,96.71
2019-02-18T02:11:54.519Z,97.00
2019-02-18T02:12:56.088Z,97.07
2019-02-18T02:13:56.775Z,96.85
2019-02-18T02:14:57.416Z,97.04
2019-02-18T02:15:57.998Z,97.19
2019-02-18T02:16:58.280Z,97.16
2019-02-18T02:17:58.464Z,97.15
2019-02-18T02:18:59.332Z,96.82
2019-02-18T02:20:00.103Z,97.46
2019-02-18T02:21:00.051Z,97.30
2019-02-18T02:22:01.759Z,96.54
2019-02-18T02:23:02.522Z,96.92
2019-02-18T02:24:03.508Z,97.23
2019-02-18T02:25:04.415Z,96.66
2019-02-18T02:26:05.139Z,97.09
2019-02-18T02:27:05.839Z,96.91
2019-02-18T02:28:06.475Z,96.45
2019-02-18T02:29:07.031Z,97.04
2019-02-18T02:30:07.566Z,97.13
2019-02-18T02:31:08.449Z,97.55
2019-02-18T02:32:09.170Z,97.82
2019-02-18T02:33:09.815Z,97.89
2019-02-18T02:34:10.683Z,98.28
2019-02-18T02:35:11.539Z,98.38
2019-02-18T02:36:12.302Z,97.68
2019-02-18T02:37:13.262Z,97.35
2019-02-18T02:38:13.844Z,97.52
2019-02-18T02:39:14.699Z,97.43
2019-02-18T02:40:15.350Z,97.83
2019-02-18T02:41:16.151Z,97.72
2019-02-18T02:42:16.819Z,97.23
2019-02-18T02:43:17.681Z,97.85
2019-02-18T02:44:18.210Z,98.18
2019-02-18T02:45:18.250Z,98.11
2019-02-18T02:46:19.023Z,98.10
2019-02-18T02:47:19.561Z,98.24
2019-02-18T02:48:20.098Z,98.00
2019-02-18T02:49:20.677Z,97.61
2019-02-18T02:50:21.284Z,97.60
2019-02-18T02:51:22.137Z,97.51
2019-02-18T02:52:23.125Z,96.91
2019-02-18T02:53:23.631Z,96.87
2019-02-18T02:54:24.187Z,97.17
2019-02-18T02:55:24.034Z,97.75
2019-02-18T02:56:25.670Z,97.84
2019-02-18T02:57:26.254Z,98.12
2019-02-18T02:57:35.277Z,98.01
2019-02-18T02:58:36.799Z,98.05
2019-02-18T02:59:37.684Z,98.09
2019-02-18T03:00:38.369Z,97.67
2019-02-18T03:01:39.065Z,97.62
2019-02-18T03:02:40.023Z,98.05
2019-02-18T03:03:40.684Z,98.42
2019-02-18T03:04:41.368Z,98.27
2019-02-18T03:05:42.090Z,98.31
2019-02-18T03:06:42.766Z,98.11
2019-02-18T03:07:43.472Z,98.27
2019-02-18T03:08:44.086Z,97.75
2019-02-18T03:09:44.963Z,98.15
2019-02-18T03:10:45.506Z,98.73
2019-02-18T03:11:46.446Z,98.27
2019-02-18T03:12:47.227Z,98.48
2019-02-18T03:13:47.397Z,98.14
2019-02-18T03:14:48.092Z,98.30
2019-02-18T03:15:48.798Z,98.29
2019-02-18T03:16:49.669Z,98.43
2019-02-18T03:17:50.345Z,98.27
2019-02-18T03:18:51.108Z,98.14
2019-02-18T03:19:51.816Z,98.41
2019-02-18T03:20:52.648Z,97.89
2019-02-18T03:21:53.301Z,98.19
2019-02-18T03:22:53.898Z,99.03
2019-02-18T03:23:54.496Z,99.36
2019-02-18T03:24:55.232Z,99.23
2019-02-18T03:25:55.941Z,98.40
2019-02-18T03:26:56.513Z,98.45
2019-02-18T03:27:57.403Z,98.46
2019-02-18T03:28:57.963Z,98.74
2019-02-18T03:29:58.595Z,98.87
2019-02-18T03:30:59.372Z,99.10
2019-02-18T03:32:00.068Z,99.03
2019-02-18T03:33:00.733Z,99.09
2019-02-18T03:34:00.352Z,99.15
2019-02-18T03:35:01.930Z,99.23
2019-02-18T03:36:02.698Z,99.00
2019-02-18T03:37:03.309Z,98.95
2019-02-18T03:38:03.928Z,98.46
2019-02-18T03:39:04.637Z,98.54
2019-02-18T03:40:05.356Z,98.96
2019-02-18T03:41:05.903Z,98.88
2019-02-18T03:42:06.593Z,99.15
2019-02-18T03:43:07.235Z,99.28
2019-02-18T03:43:16.753Z,99.36
2019-02-18T03:44:17.692Z,99.31
2019-02-18T03:45:18.379Z,99.33
2019-02-18T03:46:19.165Z,98.99
2019-02-18T03:47:19.732Z,99.05
2019-02-18T03:48:20.349Z,99.15
2019-02-18T03:49:21.048Z,99.39
2019-02-18T03:50:20.586Z,99.22
2019-02-18T03:51:22.128Z,99.21
2019-02-18T03:52:22.673Z,98.71
2019-02-18T03:53:23.478Z,99.16
2019-02-18T03:54:24.083Z,99.33
2019-02-18T03:55:24.655Z,99.35
2019-02-18T03:56:25.575Z,98.84
2019-02-18T03:57:26.402Z,98.43
2019-02-18T03:58:27.111Z,98.23
2019-02-18T03:59:27.682Z,98.19
2019-02-18T04:00:28.285Z,97.73
2019-02-18T04:01:28.811Z,97.44
2019-02-18T04:02:29.532Z,97.29
2019-02-18T04:03:30.184Z,97.33
2019-02-18T04:04:30.425Z,97.22
2019-02-18T04:05:31.135Z,97.05
2019-02-18T04:06:31.710Z,97.07
2019-02-18T04:07:32.290Z,97.17
2019-02-18T04:08:42.398Z,97.11
2019-02-18T04:09:32.673Z,96.98
2019-02-18T04:10:34.229Z,96.61
2019-02-18T04:11:34.866Z,97.23
2019-02-18T04:12:34.998Z,96.97
2019-02-18T04:13:35.650Z,97.09
2019-02-18T04:14:36.275Z,97.21
2019-02-18T04:15:37.042Z,97.22
2019-02-18T04:16:37.514Z,97.34
2019-02-18T04:17:38.094Z,97.30
2019-02-18T04:18:38.750Z,97.01
2019-02-18T04:19:39.400Z,97.23
2019-02-18T04:20:40.411Z,97.82
2019-02-18T04:21:40.969Z,97.65
2019-02-18T04:22:41.569Z,97.43
2019-02-18T04:23:42.052Z,97.43
2019-02-18T04:24:42.689Z,97.72
2019-02-18T04:25:43.443Z,97.45
2019-02-18T04:26:43.029Z,97.72
2019-02-18T04:27:44.612Z,97.93
2019-02-18T04:28:45.427Z,97.94
2019-02-18T04:28:54.955Z,97.86
2019-02-18T04:29:56.673Z,97.84
2019-02-18T04:30:57.280Z,98.06
2019-02-18T04:31:58.019Z,97.93
2019-02-18T04:32:58.693Z,97.74
2019-02-18T04:33:58.749Z,97.71
2019-02-18T04:34:59.463Z,97.78
2019-02-18T04:36:00.008Z,97.77
2019-02-18T04:37:00.579Z,97.68
2019-02-18T04:38:01.317Z,98.00
2019-02-18T04:39:02.216Z,98.17
2019-02-18T04:40:02.816Z,98.29
2019-02-18T04:41:03.677Z,97.85
2019-02-18T04:42:05.340Z,98.22
2019-02-18T04:43:05.046Z,98.39
2019-02-18T04:44:05.796Z,98.31
2019-02-18T04:45:06.523Z,98.13
2019-02-18T04:46:07.092Z,98.12
2019-02-18T04:47:07.687Z,97.89
2019-02-18T04:48:08.276Z,97.68
2019-02-18T04:49:08.784Z,97.89
2019-02-18T04:50:09.485Z,97.49
2019-02-18T04:51:09.119Z,97.51
2019-02-18T04:52:10.696Z,97.27
2019-02-18T04:53:11.349Z,97.48
2019-02-18T04:54:12.085Z,97.93
2019-02-18T04:55:12.942Z,97.85
2019-02-18T04:56:13.637Z,98.47
2019-02-18T04:57:14.211Z,98.27
2019-02-18T04:58:14.861Z,98.58
2019-02-18T04:59:14.639Z,98.96
2019-02-18T05:00:16.178Z,98.98
2019-02-18T05:01:16.977Z,98.75
2019-02-18T05:02:17.127Z,98.27
2019-02-18T05:03:17.929Z,98.21
2019-02-18T05:04:18.507Z,98.38
2019-02-18T05:05:19.116Z,98.55
2019-02-18T05:06:19.848Z,99.04
2019-02-18T05:07:20.638Z,98.58
2019-02-18T05:08:21.272Z,98.79
2019-02-18T05:09:21.921Z,98.90
2019-02-18T05:10:22.528Z,98.98
2019-02-18T05:11:23.424Z,99.07
2019-02-18T05:12:24.008Z,99.07
2019-02-18T05:13:24.788Z,98.86
2019-02-18T05:14:25.448Z,98.64
2019-02-18T05:15:26.152Z,98.79
2019-02-18T05:15:35.216Z,98.82
2019-02-18T05:16:36.654Z,98.79
2019-02-18T05:17:37.289Z,98.59
2019-02-18T05:18:36.923Z,98.10
2019-02-18T05:19:38.511Z,97.66
2019-02-18T05:20:38.751Z,97.62
2019-02-18T05:21:39.297Z,97.79
2019-02-18T05:22:39.999Z,97.88
2019-02-18T05:23:40.665Z,97.88
2019-02-18T05:24:41.171Z,97.83
2019-02-18T05:25:41.861Z,97.62
2019-02-18T05:26:42.449Z,97.73
2019-02-18T05:27:43.108Z,97.81
2019-02-18T05:28:43.225Z,97.83
2019-02-18T05:29:43.940Z,97.44
2019-02-18T05:30:43.973Z,97.65
2019-02-18T05:31:44.740Z,98.19
2019-02-18T05:32:45.412Z,98.14
2019-02-18T05:33:45.940Z,98.29
2019-02-18T05:34:46.525Z,99.11
2019-02-18T05:35:47.009Z,99.24
2019-02-18T05:36:47.583Z,99.24
2019-02-18T05:37:48.482Z,99.48
2019-02-18T05:38:49.155Z,99.77
2019-02-18T05:39:49.850Z,99.90
2019-02-18T05:40:50.462Z,100.30
2019-02-18T05:41:50.980Z,100.26
2019-02-18T05:42:51.673Z,100.58
2019-02-18T05:43:52.529Z,100.59
2019-02-18T05:44:53.153Z,100.64
2019-02-18T05:45:53.766Z,101.06
2019-02-18T05:46:54.379Z,101.12
2019-02-18T05:47:55.122Z,100.91
2019-02-18T05:48:55.770Z,101.11
2019-02-18T05:49:56.525Z,101.36
2019-02-18T05:50:57.087Z,100.95
2019-02-18T05:51:57.895Z,100.55
2019-02-18T05:52:58.010Z,100.21
2019-02-18T05:53:58.056Z,100.22
2019-02-18T05:54:58.925Z,100.02
2019-02-18T05:55:59.525Z,99.75
2019-02-18T05:57:00.308Z,99.86
2019-02-18T05:58:00.823Z,100.00
2019-02-18T05:59:01.532Z,100.00
2019-02-18T06:00:02.480Z,99.94
2019-02-18T06:00:11.539Z,99.68
2019-02-18T06:01:13.332Z,99.66
2019-02-18T06:02:14.097Z,99.58
2019-02-18T06:03:14.685Z,99.43
2019-02-18T06:04:15.368Z,99.59
2019-02-18T06:05:16.264Z,99.50
2019-02-18T06:06:16.993Z,99.00
2019-02-18T06:07:17.925Z,99.08
2019-02-18T06:08:18.758Z,99.58
2019-02-18T06:09:28.951Z,100.11
2019-02-18T06:10:18.294Z,100.21
2019-02-18T06:11:20.134Z,100.00
2019-02-18T06:12:20.553Z,100.15
2019-02-18T06:13:21.321Z,100.70
2019-02-18T06:14:21.857Z,101.16
2019-02-18T06:15:22.678Z,100.98
2019-02-18T06:16:23.412Z,101.06
2019-02-18T06:17:23.940Z,100.68
2019-02-18T06:18:24.739Z,99.85
2019-02-18T06:19:25.417Z,99.76
2019-02-18T06:20:25.492Z,100.03
2019-02-18T06:21:26.095Z,99.33
2019-02-18T06:22:26.160Z,99.69
2019-02-18T06:23:26.705Z,99.77
2019-02-18T06:24:27.348Z,99.72
2019-02-18T06:25:28.454Z,100.29
2019-02-18T06:26:28.005Z,100.45
2019-02-18T06:27:28.951Z,100.26
2019-02-18T06:28:30.840Z,100.13
2019-02-18T06:29:31.405Z,99.97
2019-02-18T06:30:31.964Z,99.57
2019-02-18T06:31:32.493Z,99.48
2019-02-18T06:32:33.051Z,99.57
2019-02-18T06:33:33.790Z,99.62
2019-02-18T06:34:33.555Z,99.62
2019-02-18T06:35:35.310Z,99.03
2019-02-18T06:36:35.992Z,99.10
2019-02-18T06:37:36.910Z,98.97
2019-02-18T06:38:37.692Z,99.30
2019-02-18T06:39:41.632Z,98.97
2019-02-18T06:40:38.093Z,98.94
2019-02-18T06:41:39.882Z,98.95
2019-02-18T06:42:40.560Z,98.40
2019-02-18T06:43:41.355Z,98.29
2019-02-18T06:44:41.915Z,98.46
2019-02-18T06:45:42.531Z,98.72
2019-02-18T06:46:43.058Z,99.06
2019-02-18T06:47:43.897Z,98.97
2019-02-18T06:47:54.918Z,99.02
2019-02-18T06:48:56.659Z,99.06
2019-02-18T06:49:57.283Z,98.73
2019-02-18T06:50:57.926Z,98.84
2019-02-18T06:51:58.673Z,98.70
2019-02-18T06:52:58.271Z,98.52
2019-02-18T06:53:59.884Z,98.26
2019-02-18T06:55:00.477Z,98.37
2019-02-18T06:56:01.455Z,98.24
2019-02-18T06:57:02.026Z,98.71
2019-02-18T06:58:01.694Z,98.93
2019-02-18T06:59:03.546Z,98.74
2019-02-18T07:00:03.796Z,98.19
2019-02-18T07:01:03.877Z,98.58
2019-02-18T07:02:04.755Z,98.22
2019-02-18T07:03:05.366Z,98.25
2019-02-18T07:04:05.954Z,98.53
2019-02-18T07:05:06.695Z,98.09
2019-02-18T07:06:07.474Z,98.64
2019-02-18T07:07:08.066Z,98.73
2019-02-18T07:08:08.682Z,98.48
2019-02-18T07:09:09.427Z,98.75
2019-02-18T07:10:09.917Z,98.11
2019-02-18T07:11:10.078Z,98.35
2019-02-18T07:12:10.877Z,98.36
2019-02-18T07:13:11.622Z,98.67
2019-02-18T07:14:11.636Z,98.61
2019-02-18T07:15:12.261Z,98.23
2019-02-18T07:16:13.173Z,97.55
2019-02-18T07:17:13.868Z,97.49
2019-02-18T07:18:14.730Z,97.39
2019-02-18T07:19:15.342Z,97.07
2019-02-18T07:20:16.157Z,97.07
2019-02-18T07:21:17.076Z,97.59
2019-02-18T07:22:18.012Z,97.74
2019-02-18T07:23:18.601Z,98.07
2019-02-18T07:24:19.154Z,98.00
2019-02-18T07:25:19.828Z,97.91
2019-02-18T07:26:19.399Z,98.36
2019-02-18T07:27:21.185Z,98.82
2019-02-18T07:28:21.912Z,98.64
2019-02-18T07:29:22.839Z,98.91
2019-02-18T07:30:23.444Z,99.02
2019-02-18T07:31:24.115Z,99.20
2019-02-18T07:32:24.524Z,98.94
2019-02-18T07:33:24.069Z,99.00
2019-02-18T07:33:33.110Z,99.01
2019-02-18T07:34:34.783Z,98.99
2019-02-18T07:35:35.482Z,98.90
2019-02-18T07:36:36.114Z,98.93
2019-02-18T07:37:36.724Z,98.78
2019-02-18T07:38:36.764Z,98.58
2019-02-18T07:39:37.380Z,98.59
2019-02-18T07:40:38.024Z,98.60
2019-02-18T07:41:38.959Z,98.36
2019-02-18T07:42:39.629Z,98.30
2019-02-18T07:43:40.226Z,98.38
2019-02-18T07:44:40.953Z,98.12
2019-02-18T07:45:41.860Z,97.68
2019-02-18T07:46:42.520Z,97.76
2019-02-18T07:47:43.067Z,97.99
2019-02-18T07:48:43.754Z,98.06
2019-02-18T07:49:44.592Z,98.12
2019-02-18T07:50:45.156Z,98.14
2019-02-18T07:51:45.786Z,98.22
2019-02-18T07:52:46.482Z,98.52
2019-02-18T07:53:47.216Z,98.45
2019-02-18T07:54:47.272Z,98.39
2019-02-18T07:55:47.906Z,98.33
2019-02-18T07:56:48.674Z,98.36
2019-02-18T07:57:49.549Z,98.79
2019-02-18T07:58:50.331Z,99.03
2019-02-18T07:59:51.266Z,99.26
2019-02-18T08:00:51.871Z,99.34
2019-02-18T08:01:52.487Z,99.39
2019-02-18T08:02:53.438Z,99.28
2019-02-18T08:03:53.512Z,98.97
2019-02-18T08:04:54.126Z,98.77
2019-02-18T08:05:54.738Z,98.75
2019-02-18T08:06:55.375Z,98.70
2019-02-18T08:07:56.041Z,98.58
2019-02-18T08:08:56.651Z,98.77
2019-02-18T08:09:57.269Z,98.81
2019-02-18T08:10:57.529Z,98.46
2019-02-18T08:11:58.220Z,98.39
2019-02-18T08:12:58.807Z,98.61
2019-02-18T08:13:59.538Z,98.53
2019-02-18T08:15:00.144Z,98.23
2019-02-18T08:16:00.903Z,97.90
2019-02-18T08:17:01.476Z,97.47
2019-02-18T08:17:10.488Z,98.18
2019-02-18T08:18:12.288Z,98.16
2019-02-18T08:19:12.955Z,98.34
2019-02-18T08:20:13.270Z,98.29
2019-02-18T08:21:13.626Z,98.32
2019-02-18T08:22:14.605Z,98.06
2019-02-18T08:23:14.649Z,98.17
2019-02-18T08:24:15.568Z,98.03
2019-02-18T08:25:16.225Z,98.17
2019-02-18T08:26:16.984Z,97.96
2019-02-18T08:27:17.820Z,97.77
2019-02-18T08:28:18.402Z,97.71
2019-02-18T08:29:19.010Z,97.72
2019-02-18T08:30:19.705Z,97.59
2019-02-18T08:31:20.391Z,97.40
2019-02-18T08:32:21.342Z,97.46
2019-02-18T08:33:21.320Z,97.15
2019-02-18T08:34:21.866Z,96.96
2019-02-18T08:35:22.518Z,96.81
2019-02-18T08:36:23.057Z,96.70
2019-02-18T08:37:23.635Z,96.62
2019-02-18T08:38:24.382Z,96.43
2019-02-18T08:39:25.103Z,96.02
2019-02-18T08:40:25.815Z,96.30
2019-02-18T08:41:26.497Z,96.74
2019-02-18T08:42:27.186Z,96.38
2019-02-18T08:43:27.392Z,96.58
2019-02-18T08:44:28.351Z,96.59
2019-02-18T08:45:28.978Z,96.80
2019-02-18T08:46:29.949Z,96.63
2019-02-18T08:47:30.562Z,96.26
2019-02-18T08:48:31.491Z,96.56
2019-02-18T08:49:32.122Z,96.84
2019-02-18T08:50:32.844Z,96.86
2019-02-18T08:51:33.492Z,97.61
2019-02-18T08:52:34.284Z,97.57
2019-02-18T08:53:34.880Z,97.71
2019-02-18T08:54:34.778Z,97.66
2019-02-18T08:55:36.427Z,97.60
2019-02-18T08:56:37.035Z,97.67
2019-02-18T08:57:37.105Z,97.84
2019-02-18T08:58:37.763Z,97.80
2019-02-18T08:59:38.521Z,97.82
2019-02-18T09:00:39.397Z,97.71
2019-02-18T09:01:40.240Z,97.71
2019-02-18T09:02:40.844Z,97.72
2019-02-18T09:02:54.393Z,98.04
2019-02-18T09:03:56.308Z,98.06
2019-02-18T09:04:56.554Z,97.82
2019-02-18T09:05:57.305Z,97.35
2019-02-18T09:06:57.987Z,97.00
2019-02-18T09:07:58.639Z,96.91
2019-02-18T09:08:59.302Z,96.66
2019-02-18T09:10:00.259Z,96.55
2019-02-18T09:11:00.115Z,96.32
2019-02-18T09:12:01.754Z,96.46
2019-02-18T09:13:02.284Z,96.89
2019-02-18T09:14:03.006Z,97.06
2019-02-18T09:15:03.877Z,96.97
2019-02-18T09:16:04.642Z,96.96
2019-02-18T09:17:05.277Z,96.48
2019-02-18T09:18:06.128Z,96.92
2019-02-18T09:19:07.057Z,96.93
2019-02-18T09:20:07.767Z,96.84
2019-02-18T09:21:07.795Z,97.13
2019-02-18T09:22:08.616Z,97.46
2019-02-18T09:23:09.285Z,97.95
2019-02-18T09:24:09.934Z,97.20
2019-02-18T09:25:10.765Z,97.31
2019-02-18T09:26:10.792Z,97.64
2019-02-18T09:27:11.598Z,97.21
2019-02-18T09:28:12.193Z,97.08
2019-02-18T09:29:12.893Z,97.20
2019-02-18T09:30:12.903Z,97.63
2019-02-18T09:31:13.523Z,97.86
2019-02-18T09:32:14.185Z,97.21
2019-02-18T09:33:14.906Z,97.00
2019-02-18T09:34:15.671Z,96.88
2019-02-18T09:35:16.210Z,97.04
2019-02-18T09:36:17.208Z,97.09
2019-02-18T09:37:18.126Z,97.32
2019-02-18T09:38:25.003Z,97.45
2019-02-18T09:39:17.615Z,97.54
2019-02-18T09:40:19.454Z,97.71
2019-02-18T09:41:19.472Z,97.54
2019-02-18T09:42:20.205Z,97.48
2019-02-18T09:43:20.949Z,97.56
2019-02-18T09:44:21.215Z,97.55
2019-02-18T09:45:21.484Z,97.52
2019-02-18T09:46:22.320Z,97.38
2019-02-18T09:47:23.260Z,96.90
2019-02-18T09:48:23.927Z,96.60
2019-02-18T09:48:32.948Z,96.56
2019-02-18T09:49:34.453Z,96.54
2019-02-18T09:50:35.217Z,96.27
2019-02-18T09:51:35.219Z,95.93
2019-02-18T09:52:36.136Z,95.01
2019-02-18T09:53:37.148Z,94.21
2019-02-18T09:54:36.958Z,93.14
2019-02-18T09:55:37.924Z,91.72
2019-02-18T09:56:38.828Z,91.10
2019-02-18T09:57:39.505Z,89.71
2019-02-18T09:58:39.546Z,87.61
2019-02-18T09:59:40.209Z,86.26
2019-02-18T10:00:40.718Z,84.87
2019-02-18T10:01:43.162Z,84.15
2019-02-18T10:02:40.711Z,82.56
2019-02-18T10:03:41.940Z,81.17
2019-02-18T10:04:42.580Z,80.55
2019-02-18T10:05:42.829Z,79.35
2019-02-18T10:06:43.641Z,77.91
2019-02-18T10:07:43.797Z,79.03
2019-02-18T10:08:44.583Z,78.42
2019-02-18T10:09:45.431Z,79.08
2019-02-18T10:10:55.391Z,77.62
2019-02-18T10:11:45.311Z,76.94
2019-02-18T10:12:47.105Z,76.06
2019-02-18T10:13:48.053Z,76.01
2019-02-18T10:14:48.656Z,75.48
2019-02-18T10:15:49.510Z,75.37
2019-02-18T10:16:50.425Z,76.10
2019-02-18T10:17:51.350Z,76.89
2019-02-18T10:18:52.010Z,76.34
2019-02-18T10:19:52.668Z,74.58
2019-02-18T10:20:53.378Z,73.40
2019-02-18T10:21:54.133Z,74.54
2019-02-18T10:22:54.871Z,74.79
2019-02-18T10:23:55.761Z,73.89
2019-02-18T10:24:56.013Z,73.10
2019-02-18T10:25:56.776Z,72.82
2019-02-18T10:26:57.615Z,72.75
2019-02-18T10:27:57.759Z,72.76
2019-02-18T10:28:58.079Z,72.07
2019-02-18T10:29:58.702Z,72.22
2019-02-18T10:30:59.471Z,72.24
2019-02-18T10:31:59.992Z,72.24
2019-02-18T10:33:00.613Z,71.25
2019-02-18T10:34:01.282Z,71.38
2019-02-18T10:35:01.898Z,72.87
2019-02-18T10:35:10.910Z,72.63
2019-02-18T10:36:12.305Z,72.51
2019-02-18T10:37:12.966Z,72.19
2019-02-18T10:38:13.062Z,70.82
2019-02-18T10:39:14.032Z,70.51
2019-02-18T10:40:15.096Z,70.74
2019-02-18T10:41:14.403Z,69.16
2019-02-18T10:42:15.170Z,69.48
2019-02-18T10:43:16.057Z,69.95
2019-02-18T10:44:16.693Z,69.99
2019-02-18T10:45:17.540Z,70.54
2019-02-18T10:46:18.396Z,71.85
2019-02-18T10:47:19.154Z,70.95
2019-02-18T10:48:19.554Z,70.13
2019-02-18T10:49:22.228Z,71.38
2019-02-18T10:50:20.059Z,70.72
2019-02-18T10:51:20.915Z,69.06
2019-02-18T10:52:22.717Z,70.08
2019-02-18T10:53:23.366Z,69.50
2019-02-18T10:54:24.309Z,69.47
2019-02-18T10:55:24.883Z,70.36
2019-02-18T10:56:25.760Z,70.72
2019-02-18T10:57:26.632Z,69.80
2019-02-18T10:58:26.362Z,70.25
2019-02-18T10:59:28.106Z,70.39
2019-02-18T11:00:28.231Z,69.80
2019-02-18T11:01:29.087Z,69.86
2019-02-18T11:02:29.885Z,70.70
2019-02-18T11:03:29.619Z,70.00
2019-02-18T11:04:31.253Z,70.02
2019-02-18T11:05:31.987Z,70.96
2019-02-18T11:06:31.068Z,69.21
2019-02-18T11:07:32.779Z,71.14
2019-02-18T11:08:33.559Z,71.36
2019-02-18T11:09:34.102Z,71.39
2019-02-18T11:10:34.683Z,71.70
2019-02-18T11:11:34.988Z,70.96
2019-02-18T11:12:35.204Z,70.51
2019-02-18T11:13:35.871Z,69.24
2019-02-18T11:14:36.616Z,71.18
2019-02-18T11:15:37.207Z,70.98
2019-02-18T11:16:37.585Z,71.19
2019-02-18T11:17:39.149Z,71.52
2019-02-18T11:18:37.557Z,71.49
2019-02-18T11:19:39.388Z,71.68
2019-02-18T11:20:39.958Z,72.10
2019-02-18T11:21:40.600Z,71.86
2019-02-18T11:22:40.246Z,71.22
2019-02-18T11:23:42.292Z,71.31
2019-02-18T11:24:42.067Z,71.22
2019-02-18T11:25:42.190Z,71.37
2019-02-18T11:25:51.539Z,71.13
2019-02-18T11:26:52.724Z,71.15
2019-02-18T11:27:53.060Z,70.31
2019-02-18T11:28:52.642Z,70.80
2019-02-18T11:29:54.425Z,71.07
2019-02-18T11:30:54.550Z,71.52
2019-02-18T11:31:55.413Z,71.01
2019-02-18T11:32:55.561Z,70.93
2019-02-18T11:33:56.217Z,70.77
2019-02-18T11:34:56.858Z,71.00
2019-02-18T11:35:56.475Z,70.71
2019-02-18T11:36:57.066Z,70.53
2019-02-18T11:37:57.851Z,70.15
2019-02-18T11:38:59.595Z,69.53
2019-02-18T11:40:00.332Z,69.69
2019-02-18T11:41:00.053Z,70.10
2019-02-18T11:42:01.672Z,69.52
2019-02-18T11:43:02.432Z,68.24
2019-02-18T11:44:02.826Z,68.70
2019-02-18T11:45:03.599Z,67.36
2019-02-18T11:46:04.236Z,68.08
2019-02-18T11:47:04.029Z,67.22
2019-02-18T11:48:05.889Z,67.35
2019-02-18T11:49:06.761Z,68.17
2019-02-18T11:50:07.833Z,68.06
2019-02-18T11:51:07.507Z,68.24
2019-02-18T11:52:08.074Z,68.51
2019-02-18T11:53:08.979Z,68.24
2019-02-18T11:54:09.720Z,67.59
2019-02-18T11:55:09.459Z,66.20
2019-02-18T11:56:11.228Z,66.53
2019-02-18T11:57:11.862Z,67.39
2019-02-18T11:58:12.534Z,68.49
2019-02-18T11:59:23.771Z,66.38
2019-02-18T12:00:13.179Z,66.48
2019-02-18T12:01:14.293Z,67.87
2019-02-18T12:02:14.549Z,67.49
2019-02-18T12:03:15.308Z,67.07
2019-02-18T12:04:15.191Z,67.43
2019-02-18T12:05:16.808Z,66.52
2019-02-18T12:06:17.797Z,65.94
2019-02-18T12:07:18.644Z,66.19
2019-02-18T12:08:19.552Z,66.04
2019-02-18T12:09:20.429Z,66.56
2019-02-18T12:10:21.233Z,66.73
2019-02-18T12:11:21.595Z,66.79
2019-02-18T12:12:21.403Z,66.53
2019-02-18T12:13:23.362Z,65.99
2019-02-18T12:14:23.348Z,65.95
2019-02-18T12:15:24.258Z,66.44
2019-02-18T12:16:25.099Z,65.84
2019-02-18T12:17:24.982Z,65.06
2019-02-18T12:18:26.052Z,65.74
2019-02-18T12:18:35.589Z,66.35
2019-02-18T12:19:37.288Z,66.31
2019-02-18T12:20:38.069Z,66.37
2019-02-18T12:21:37.298Z,65.76
2019-02-18T12:22:38.952Z,66.21
2019-02-18T12:23:39.610Z,64.89
2019-02-18T12:24:40.542Z,65.63
2019-02-18T12:25:41.169Z,65.79
2019-02-18T12:26:41.812Z,65.50
2019-02-18T12:27:42.493Z,65.18
2019-02-18T12:28:45.140Z,65.00
2019-02-18T12:29:42.923Z,65.37
2019-02-18T12:30:44.598Z,65.00
2019-02-18T12:31:45.459Z,64.53
2019-02-18T12:32:46.230Z,63.92
2019-02-18T12:33:46.304Z,63.89
2019-02-18T12:34:46.938Z,64.14
2019-02-18T12:35:47.744Z,64.87
2019-02-18T12:36:48.459Z,64.32
2019-02-18T12:37:55.442Z,64.24
2019-02-18T12:38:48.689Z,63.88
2019-02-18T12:39:50.149Z,63.47
2019-02-18T12:40:50.749Z,63.65
2019-02-18T12:41:51.338Z,63.96
2019-02-18T12:42:51.622Z,64.16
2019-02-18T12:43:52.509Z,63.67
2019-02-18T12:44:53.347Z,63.70
2019-02-18T12:45:54.112Z,62.69